sensor_id;sensor_type;location;lat;lon;timestamp;P1;durP1;ratioP1;P2;durP2;ratioP2
77109;SDS011;66062;52.464;16.922;2023-01-16T00:00:41;3.27;;;0.73;;
77109;SDS011;66062;52.464;16.922;2023-01-16T00:03:07;2.60;;;1.15;;
77109;SDS011;66062;52.464;16.922;2023-01-16T00:05:32;2.95;;;1.15;;
77109;SDS011;66062;52.464;16.922;2023-01-16T00:07:57;2.83;;;0.90;;
77109;SDS011;66062;52.464;16.922;2023-01-16T00:10:23;2.83;;;1.05;;
77109;SDS011;66062;52.464;16.922;2023-01-16T00:12:48;6.05;;;1.08;;
77109;SDS011;66062;52.464;16.922;2023-01-16T00:15:13;1.83;;;0.57;;
77109;SDS011;66062;52.464;16.922;2023-01-16T00:17:39;3.35;;;1.20;;
77109;SDS011;66062;52.464;16.922;2023-01-16T00:20:04;2.93;;;0.90;;
77109;SDS011;66062;52.464;16.922;2023-01-16T00:22:30;2.97;;;0.88;;
77109;SDS011;66062;52.464;16.922;2023-01-16T00:24:55;2.10;;;0.70;;
77109;SDS011;66062;52.464;16.922;2023-01-16T00:27:20;3.30;;;1.23;;
77109;SDS011;66062;52.464;16.922;2023-01-16T00:29:46;2.67;;;0.70;;
77109;SDS011;66062;52.464;16.922;2023-01-16T00:32:11;5.60;;;0.97;;
77109;SDS011;66062;52.464;16.922;2023-01-16T00:34:36;4.75;;;1.13;;
77109;SDS011;66062;52.464;16.922;2023-01-16T00:37:02;3.37;;;0.90;;
77109;SDS011;66062;52.464;16.922;2023-01-16T00:39:29;2.47;;;1.00;;
77109;SDS011;66062;52.464;16.922;2023-01-16T00:41:55;2.30;;;0.80;;
77109;SDS011;66062;52.464;16.922;2023-01-16T00:44:20;3.08;;;1.35;;
77109;SDS011;66062;52.464;16.922;2023-01-16T00:46:45;7.97;;;1.97;;
77109;SDS011;66062;52.464;16.922;2023-01-16T00:49:10;3.17;;;0.70;;
77109;SDS011;66062;52.464;16.922;2023-01-16T00:51:36;3.37;;;0.80;;
77109;SDS011;66062;52.464;16.922;2023-01-16T00:54:01;4.43;;;0.57;;
77109;SDS011;66062;52.464;16.922;2023-01-16T00:56:26;2.75;;;0.95;;
77109;SDS011;66062;52.464;16.922;2023-01-16T00:58:52;5.40;;;1.33;;
77109;SDS011;66062;52.464;16.922;2023-01-16T01:01:17;2.13;;;0.60;;
77109;SDS011;66062;52.464;16.922;2023-01-16T01:03:42;2.67;;;0.80;;
77109;SDS011;66062;52.464;16.922;2023-01-16T01:06:08;2.65;;;1.08;;
77109;SDS011;66062;52.464;16.922;2023-01-16T01:08:33;2.33;;;1.02;;
77109;SDS011;66062;52.464;16.922;2023-01-16T01:11:05;3.13;;;1.35;;
77109;SDS011;66062;52.464;16.922;2023-01-16T01:13:30;3.33;;;0.85;;
77109;SDS011;66062;52.464;16.922;2023-01-16T01:15:55;4.30;;;1.37;;
77109;SDS011;66062;52.464;16.922;2023-01-16T01:18:21;3.10;;;1.00;;
77109;SDS011;66062;52.464;16.922;2023-01-16T01:20:46;3.00;;;0.60;;
77109;SDS011;66062;52.464;16.922;2023-01-16T01:23:11;2.93;;;1.23;;
77109;SDS011;66062;52.464;16.922;2023-01-16T01:25:37;4.43;;;1.27;;
77109;SDS011;66062;52.464;16.922;2023-01-16T01:28:02;4.15;;;1.25;;
77109;SDS011;66062;52.464;16.922;2023-01-16T01:30:28;4.38;;;1.25;;
77109;SDS011;66062;52.464;16.922;2023-01-16T01:32:53;2.77;;;1.40;;
77109;SDS011;66062;52.464;16.922;2023-01-16T01:35:18;2.37;;;0.87;;
77109;SDS011;66062;52.464;16.922;2023-01-16T01:37:44;3.42;;;0.93;;
77109;SDS011;66062;52.464;16.922;2023-01-16T01:40:10;2.80;;;1.50;;
77109;SDS011;66062;52.464;16.922;2023-01-16T01:42:36;3.42;;;1.35;;
77109;SDS011;66062;52.464;16.922;2023-01-16T01:47:39;3.08;;;0.90;;
77109;SDS011;66062;52.464;16.922;2023-01-16T01:50:17;2.42;;;1.13;;
77109;SDS011;66062;52.464;16.922;2023-01-16T01:52:44;2.25;;;0.80;;
77109;SDS011;66062;52.464;16.922;2023-01-16T01:55:09;3.00;;;0.80;;
77109;SDS011;66062;52.464;16.922;2023-01-16T01:57:37;5.38;;;0.82;;
77109;SDS011;66062;52.464;16.922;2023-01-16T02:00:04;2.35;;;1.15;;
77109;SDS011;66062;52.464;16.922;2023-01-16T02:02:34;3.13;;;1.20;;
77109;SDS011;66062;52.464;16.922;2023-01-16T02:05:00;2.80;;;1.35;;
77109;SDS011;66062;52.464;16.922;2023-01-16T02:07:27;4.65;;;0.88;;
77109;SDS011;66062;52.464;16.922;2023-01-16T02:09:53;5.38;;;1.15;;
77109;SDS011;66062;52.464;16.922;2023-01-16T02:12:19;2.45;;;1.10;;
77109;SDS011;66062;52.464;16.922;2023-01-16T02:14:45;3.30;;;1.60;;
77109;SDS011;66062;52.464;16.922;2023-01-16T02:17:13;5.00;;;1.20;;
77109;SDS011;66062;52.464;16.922;2023-01-16T02:33:25;3.28;;;0.93;;
77109;SDS011;66062;52.464;16.922;2023-01-16T02:43:33;3.88;;;1.10;;
77109;SDS011;66062;52.464;16.922;2023-01-16T02:48:28;6.43;;;1.17;;
77109;SDS011;66062;52.464;16.922;2023-01-16T02:51:04;4.82;;;0.93;;
77109;SDS011;66062;52.464;16.922;2023-01-16T02:53:36;3.08;;;1.13;;
77109;SDS011;66062;52.464;16.922;2023-01-16T02:56:08;4.68;;;0.85;;
77109;SDS011;66062;52.464;16.922;2023-01-16T02:58:35;3.90;;;1.42;;
77109;SDS011;66062;52.464;16.922;2023-01-16T03:01:02;4.05;;;1.40;;
77109;SDS011;66062;52.464;16.922;2023-01-16T03:06:01;2.03;;;0.63;;
77109;SDS011;66062;52.464;16.922;2023-01-16T03:08:31;3.10;;;0.95;;
77109;SDS011;66062;52.464;16.922;2023-01-16T03:16:14;2.05;;;0.70;;
77109;SDS011;66062;52.464;16.922;2023-01-16T03:18:54;2.75;;;0.98;;
77109;SDS011;66062;52.464;16.922;2023-01-16T03:21:27;2.05;;;1.02;;
77109;SDS011;66062;52.464;16.922;2023-01-16T03:23:54;4.25;;;1.17;;
77109;SDS011;66062;52.464;16.922;2023-01-16T03:37:02;2.08;;;1.38;;
77109;SDS011;66062;52.464;16.922;2023-01-16T03:39:29;3.28;;;1.73;;
77109;SDS011;66062;52.464;16.922;2023-01-16T03:41:59;3.10;;;1.30;;
77109;SDS011;66062;52.464;16.922;2023-01-16T03:44:27;2.78;;;0.90;;
77109;SDS011;66062;52.464;16.922;2023-01-16T03:46:54;1.95;;;1.02;;
77109;SDS011;66062;52.464;16.922;2023-01-16T03:51:51;2.67;;;0.87;;
77109;SDS011;66062;52.464;16.922;2023-01-16T03:54:24;2.70;;;0.63;;
77109;SDS011;66062;52.464;16.922;2023-01-16T03:56:55;2.53;;;1.05;;
77109;SDS011;66062;52.464;16.922;2023-01-16T03:59:21;7.03;;;1.25;;
77109;SDS011;66062;52.464;16.922;2023-01-16T04:07:03;2.05;;;0.77;;
77109;SDS011;66062;52.464;16.922;2023-01-16T04:09:35;2.95;;;0.93;;
77109;SDS011;66062;52.464;16.922;2023-01-16T04:12:02;2.53;;;2.00;;
77109;SDS011;66062;52.464;16.922;2023-01-16T04:14:28;2.65;;;1.10;;
77109;SDS011;66062;52.464;16.922;2023-01-16T04:16:54;2.42;;;1.13;;
77109;SDS011;66062;52.464;16.922;2023-01-16T04:19:20;3.30;;;1.08;;
77109;SDS011;66062;52.464;16.922;2023-01-16T04:21:47;4.75;;;0.90;;
77109;SDS011;66062;52.464;16.922;2023-01-16T04:24:12;5.47;;;1.42;;
77109;SDS011;66062;52.464;16.922;2023-01-16T04:26:38;2.97;;;1.40;;
77109;SDS011;66062;52.464;16.922;2023-01-16T04:29:03;5.50;;;0.95;;
77109;SDS011;66062;52.464;16.922;2023-01-16T04:31:29;3.92;;;1.20;;
77109;SDS011;66062;52.464;16.922;2023-01-16T04:33:55;5.22;;;1.83;;
77109;SDS011;66062;52.464;16.922;2023-01-16T04:36:20;2.88;;;0.90;;
77109;SDS011;66062;52.464;16.922;2023-01-16T04:38:45;5.25;;;1.65;;
77109;SDS011;66062;52.464;16.922;2023-01-16T04:41:11;3.40;;;2.17;;
77109;SDS011;66062;52.464;16.922;2023-01-16T04:43:36;2.67;;;1.10;;
77109;SDS011;66062;52.464;16.922;2023-01-16T04:46:01;5.43;;;1.40;;
77109;SDS011;66062;52.464;16.922;2023-01-16T04:48:27;4.30;;;1.40;;
77109;SDS011;66062;52.464;16.922;2023-01-16T04:50:52;4.38;;;1.85;;
77109;SDS011;66062;52.464;16.922;2023-01-16T04:53:17;6.03;;;1.30;;
77109;SDS011;66062;52.464;16.922;2023-01-16T04:55:43;4.97;;;1.38;;
77109;SDS011;66062;52.464;16.922;2023-01-16T04:58:09;3.75;;;1.38;;
77109;SDS011;66062;52.464;16.922;2023-01-16T05:00:34;5.23;;;1.60;;
77109;SDS011;66062;52.464;16.922;2023-01-16T05:02:59;6.03;;;1.97;;
77109;SDS011;66062;52.464;16.922;2023-01-16T05:05:25;5.40;;;1.67;;
77109;SDS011;66062;52.464;16.922;2023-01-16T05:07:50;3.55;;;1.58;;
77109;SDS011;66062;52.464;16.922;2023-01-16T05:10:36;6.18;;;1.63;;
77109;SDS011;66062;52.464;16.922;2023-01-16T05:13:01;4.35;;;1.33;;
77109;SDS011;66062;52.464;16.922;2023-01-16T05:15:26;6.63;;;1.45;;
77109;SDS011;66062;52.464;16.922;2023-01-16T05:17:52;3.13;;;1.27;;
77109;SDS011;66062;52.464;16.922;2023-01-16T05:20:18;3.58;;;1.30;;
77109;SDS011;66062;52.464;16.922;2023-01-16T05:22:43;3.90;;;1.30;;
77109;SDS011;66062;52.464;16.922;2023-01-16T05:25:08;3.73;;;1.30;;
77109;SDS011;66062;52.464;16.922;2023-01-16T05:27:33;5.87;;;1.30;;
77109;SDS011;66062;52.464;16.922;2023-01-16T05:29:58;10.53;;;1.90;;
77109;SDS011;66062;52.464;16.922;2023-01-16T05:32:24;6.38;;;2.40;;
77109;SDS011;66062;52.464;16.922;2023-01-16T05:34:49;6.03;;;2.20;;
77109;SDS011;66062;52.464;16.922;2023-01-16T05:37:14;7.60;;;2.43;;
77109;SDS011;66062;52.464;16.922;2023-01-16T05:39:39;8.80;;;3.10;;
77109;SDS011;66062;52.464;16.922;2023-01-16T05:42:05;6.45;;;2.22;;
77109;SDS011;66062;52.464;16.922;2023-01-16T05:44:45;5.40;;;1.95;;
77109;SDS011;66062;52.464;16.922;2023-01-16T05:47:11;7.50;;;2.03;;
77109;SDS011;66062;52.464;16.922;2023-01-16T05:49:36;9.07;;;2.60;;
77109;SDS011;66062;52.464;16.922;2023-01-16T05:52:01;8.02;;;2.08;;
77109;SDS011;66062;52.464;16.922;2023-01-16T05:54:26;6.23;;;2.10;;
77109;SDS011;66062;52.464;16.922;2023-01-16T05:56:55;6.77;;;2.53;;
77109;SDS011;66062;52.464;16.922;2023-01-16T05:59:21;6.88;;;2.65;;
77109;SDS011;66062;52.464;16.922;2023-01-16T06:01:46;4.50;;;1.73;;
77109;SDS011;66062;52.464;16.922;2023-01-16T06:04:11;4.17;;;1.70;;
77109;SDS011;66062;52.464;16.922;2023-01-16T06:06:36;5.63;;;1.93;;
77109;SDS011;66062;52.464;16.922;2023-01-16T06:09:02;10.40;;;2.10;;
77109;SDS011;66062;52.464;16.922;2023-01-16T06:11:27;6.93;;;2.33;;
77109;SDS011;66062;52.464;16.922;2023-01-16T06:13:52;6.70;;;2.77;;
77109;SDS011;66062;52.464;16.922;2023-01-16T06:16:18;5.22;;;2.85;;
77109;SDS011;66062;52.464;16.922;2023-01-16T06:18:43;8.00;;;2.28;;
77109;SDS011;66062;52.464;16.922;2023-01-16T06:21:08;8.10;;;2.75;;
77109;SDS011;66062;52.464;16.922;2023-01-16T06:23:33;4.47;;;1.73;;
77109;SDS011;66062;52.464;16.922;2023-01-16T06:25:59;9.07;;;2.93;;
77109;SDS011;66062;52.464;16.922;2023-01-16T06:28:26;6.25;;;1.98;;
77109;SDS011;66062;52.464;16.922;2023-01-16T06:30:51;6.45;;;2.75;;
77109;SDS011;66062;52.464;16.922;2023-01-16T06:33:17;7.20;;;2.63;;
77109;SDS011;66062;52.464;16.922;2023-01-16T06:35:45;6.15;;;2.72;;
77109;SDS011;66062;52.464;16.922;2023-01-16T06:38:10;12.37;;;2.77;;
77109;SDS011;66062;52.464;16.922;2023-01-16T06:40:35;6.93;;;3.43;;
77109;SDS011;66062;52.464;16.922;2023-01-16T06:43:00;10.07;;;3.80;;
77109;SDS011;66062;52.464;16.922;2023-01-16T06:45:26;8.70;;;3.67;;
77109;SDS011;66062;52.464;16.922;2023-01-16T06:47:51;10.17;;;3.07;;
77109;SDS011;66062;52.464;16.922;2023-01-16T06:50:17;7.95;;;3.30;;
77109;SDS011;66062;52.464;16.922;2023-01-16T06:52:42;7.13;;;2.97;;
77109;SDS011;66062;52.464;16.922;2023-01-16T06:55:07;7.27;;;3.33;;
77109;SDS011;66062;52.464;16.922;2023-01-16T06:57:34;9.75;;;3.38;;
77109;SDS011;66062;52.464;16.922;2023-01-16T06:59:59;6.15;;;2.67;;
77109;SDS011;66062;52.464;16.922;2023-01-16T07:02:24;8.97;;;3.33;;
77109;SDS011;66062;52.464;16.922;2023-01-16T07:04:49;8.82;;;2.60;;
77109;SDS011;66062;52.464;16.922;2023-01-16T07:07:15;8.40;;;2.90;;
77109;SDS011;66062;52.464;16.922;2023-01-16T07:09:41;11.23;;;3.80;;
77109;SDS011;66062;52.464;16.922;2023-01-16T07:12:06;7.07;;;2.70;;
77109;SDS011;66062;52.464;16.922;2023-01-16T07:14:31;9.20;;;2.57;;
77109;SDS011;66062;52.464;16.922;2023-01-16T07:17:16;10.68;;;3.25;;
77109;SDS011;66062;52.464;16.922;2023-01-16T07:20:01;7.55;;;3.65;;
77109;SDS011;66062;52.464;16.922;2023-01-16T07:22:45;11.43;;;4.07;;
77109;SDS011;66062;52.464;16.922;2023-01-16T07:25:12;7.78;;;3.60;;
77109;SDS011;66062;52.464;16.922;2023-01-16T07:27:41;8.15;;;4.13;;
77109;SDS011;66062;52.464;16.922;2023-01-16T07:30:07;12.18;;;4.72;;
77109;SDS011;66062;52.464;16.922;2023-01-16T07:32:32;10.77;;;4.68;;
77109;SDS011;66062;52.464;16.922;2023-01-16T07:34:58;12.73;;;5.32;;
77109;SDS011;66062;52.464;16.922;2023-01-16T07:37:23;12.67;;;5.27;;
77109;SDS011;66062;52.464;16.922;2023-01-16T07:39:48;9.67;;;4.63;;
77109;SDS011;66062;52.464;16.922;2023-01-16T07:42:13;10.07;;;3.80;;
77109;SDS011;66062;52.464;16.922;2023-01-16T07:44:38;10.60;;;4.37;;
77109;SDS011;66062;52.464;16.922;2023-01-16T07:47:04;11.30;;;4.13;;
77109;SDS011;66062;52.464;16.922;2023-01-16T07:49:29;14.50;;;4.60;;
77109;SDS011;66062;52.464;16.922;2023-01-16T07:51:54;8.23;;;3.80;;
77109;SDS011;66062;52.464;16.922;2023-01-16T07:54:19;10.50;;;3.40;;
77109;SDS011;66062;52.464;16.922;2023-01-16T07:56:46;6.75;;;3.53;;
77109;SDS011;66062;52.464;16.922;2023-01-16T07:59:11;5.93;;;2.60;;
77109;SDS011;66062;52.464;16.922;2023-01-16T08:01:37;9.80;;;4.30;;
77109;SDS011;66062;52.464;16.922;2023-01-16T08:04:04;5.97;;;2.65;;
77109;SDS011;66062;52.464;16.922;2023-01-16T08:06:29;7.50;;;3.45;;
77109;SDS011;66062;52.464;16.922;2023-01-16T08:08:54;8.30;;;3.07;;
77109;SDS011;66062;52.464;16.922;2023-01-16T08:11:20;9.00;;;3.28;;
77109;SDS011;66062;52.464;16.922;2023-01-16T08:14:00;7.93;;;3.53;;
77109;SDS011;66062;52.464;16.922;2023-01-16T08:16:26;7.20;;;3.08;;
77109;SDS011;66062;52.464;16.922;2023-01-16T08:18:51;6.28;;;2.42;;
77109;SDS011;66062;52.464;16.922;2023-01-16T08:21:16;7.07;;;3.07;;
77109;SDS011;66062;52.464;16.922;2023-01-16T08:23:42;10.50;;;2.63;;
77109;SDS011;66062;52.464;16.922;2023-01-16T08:26:07;7.97;;;3.10;;
77109;SDS011;66062;52.464;16.922;2023-01-16T08:28:32;9.45;;;3.28;;
77109;SDS011;66062;52.464;16.922;2023-01-16T08:31:08;11.23;;;3.77;;
77109;SDS011;66062;52.464;16.922;2023-01-16T08:33:37;9.90;;;3.63;;
77109;SDS011;66062;52.464;16.922;2023-01-16T08:36:04;9.13;;;3.33;;
77109;SDS011;66062;52.464;16.922;2023-01-16T08:38:29;7.47;;;3.75;;
77109;SDS011;66062;52.464;16.922;2023-01-16T08:40:55;8.15;;;3.33;;
77109;SDS011;66062;52.464;16.922;2023-01-16T08:43:20;7.57;;;3.43;;
77109;SDS011;66062;52.464;16.922;2023-01-16T08:46:04;10.05;;;3.25;;
77109;SDS011;66062;52.464;16.922;2023-01-16T08:48:48;10.25;;;3.20;;
77109;SDS011;66062;52.464;16.922;2023-01-16T08:51:32;11.77;;;3.58;;
77109;SDS011;66062;52.464;16.922;2023-01-16T08:53:57;10.02;;;2.95;;
77109;SDS011;66062;52.464;16.922;2023-01-16T08:56:23;7.65;;;3.22;;
77109;SDS011;66062;52.464;16.922;2023-01-16T08:58:49;9.65;;;3.72;;
77109;SDS011;66062;52.464;16.922;2023-01-16T09:01:14;9.55;;;3.83;;
77109;SDS011;66062;52.464;16.922;2023-01-16T09:03:40;6.72;;;2.85;;
77109;SDS011;66062;52.464;16.922;2023-01-16T09:06:05;4.40;;;2.50;;
77109;SDS011;66062;52.464;16.922;2023-01-16T09:08:30;6.93;;;2.85;;
77109;SDS011;66062;52.464;16.922;2023-01-16T09:10:56;7.47;;;3.70;;
77109;SDS011;66062;52.464;16.922;2023-01-16T09:13:39;7.53;;;2.90;;
77109;SDS011;66062;52.464;16.922;2023-01-16T09:16:23;8.60;;;3.20;;
77109;SDS011;66062;52.464;16.922;2023-01-16T09:18:49;13.68;;;3.60;;
77109;SDS011;66062;52.464;16.922;2023-01-16T09:21:14;8.13;;;3.00;;
77109;SDS011;66062;52.464;16.922;2023-01-16T09:23:40;8.15;;;2.55;;
77109;SDS011;66062;52.464;16.922;2023-01-16T09:26:05;12.40;;;3.60;;
77109;SDS011;66062;52.464;16.922;2023-01-16T09:28:31;15.02;;;2.75;;
77109;SDS011;66062;52.464;16.922;2023-01-16T09:30:56;6.85;;;2.90;;
77109;SDS011;66062;52.464;16.922;2023-01-16T09:33:21;7.07;;;2.40;;
77109;SDS011;66062;52.464;16.922;2023-01-16T09:35:46;6.88;;;2.90;;
77109;SDS011;66062;52.464;16.922;2023-01-16T09:38:12;6.97;;;2.30;;
77109;SDS011;66062;52.464;16.922;2023-01-16T09:40:37;10.13;;;2.73;;
77109;SDS011;66062;52.464;16.922;2023-01-16T09:43:07;6.55;;;2.42;;
77109;SDS011;66062;52.464;16.922;2023-01-16T09:45:54;5.53;;;3.35;;
77109;SDS011;66062;52.464;16.922;2023-01-16T09:48:23;7.55;;;2.42;;
77109;SDS011;66062;52.464;16.922;2023-01-16T09:50:53;4.97;;;2.10;;
77109;SDS011;66062;52.464;16.922;2023-01-16T09:53:21;6.60;;;2.50;;
77109;SDS011;66062;52.464;16.922;2023-01-16T09:56:07;7.57;;;2.45;;
77109;SDS011;66062;52.464;16.922;2023-01-16T10:01:58;5.80;;;2.83;;
77109;SDS011;66062;52.464;16.922;2023-01-16T10:04:24;4.68;;;2.00;;
77109;SDS011;66062;52.464;16.922;2023-01-16T10:07:00;6.55;;;2.78;;
77109;SDS011;66062;52.464;16.922;2023-01-16T10:12:11;5.63;;;2.10;;
77109;SDS011;66062;52.464;16.922;2023-01-16T10:22:32;4.55;;;1.98;;
77109;SDS011;66062;52.464;16.922;2023-01-16T10:29:56;5.47;;;2.13;;
77109;SDS011;66062;52.464;16.922;2023-01-16T10:32:46;4.97;;;2.30;;
77109;SDS011;66062;52.464;16.922;2023-01-16T10:37:36;6.78;;;2.40;;
77109;SDS011;66062;52.464;16.922;2023-01-16T10:40:19;7.90;;;2.53;;
77109;SDS011;66062;52.464;16.922;2023-01-16T10:42:48;6.75;;;2.20;;
77109;SDS011;66062;52.464;16.922;2023-01-16T10:45:34;5.25;;;2.00;;
77109;SDS011;66062;52.464;16.922;2023-01-16T10:48:19;5.03;;;1.63;;
77109;SDS011;66062;52.464;16.922;2023-01-16T10:51:03;5.10;;;2.00;;
77109;SDS011;66062;52.464;16.922;2023-01-16T10:53:30;6.13;;;2.00;;
77109;SDS011;66062;52.464;16.922;2023-01-16T10:55:55;3.75;;;1.73;;
77109;SDS011;66062;52.464;16.922;2023-01-16T10:58:22;5.30;;;2.03;;
77109;SDS011;66062;52.464;16.922;2023-01-16T11:00:48;7.72;;;2.95;;
77109;SDS011;66062;52.464;16.922;2023-01-16T11:03:34;6.07;;;2.22;;
77109;SDS011;66062;52.464;16.922;2023-01-16T11:06:42;7.00;;;2.00;;
77109;SDS011;66062;52.464;16.922;2023-01-16T11:08:52;3.90;;;1.85;;
77109;SDS011;66062;52.464;16.922;2023-01-16T11:11:18;7.10;;;2.13;;
77109;SDS011;66062;52.464;16.922;2023-01-16T11:14:51;9.18;;;2.55;;
77109;SDS011;66062;52.464;16.922;2023-01-16T11:20:07;6.10;;;2.35;;
77109;SDS011;66062;52.464;16.922;2023-01-16T11:22:32;9.45;;;2.00;;
77109;SDS011;66062;52.464;16.922;2023-01-16T11:25:01;4.88;;;2.30;;
77109;SDS011;66062;52.464;16.922;2023-01-16T11:27:29;6.38;;;2.83;;
77109;SDS011;66062;52.464;16.922;2023-01-16T11:29:56;6.60;;;2.05;;
77109;SDS011;66062;52.464;16.922;2023-01-16T11:32:22;4.43;;;1.70;;
77109;SDS011;66062;52.464;16.922;2023-01-16T11:34:50;4.38;;;1.70;;
77109;SDS011;66062;52.464;16.922;2023-01-16T11:37:17;5.00;;;1.83;;
77109;SDS011;66062;52.464;16.922;2023-01-16T11:39:46;5.97;;;2.60;;
77109;SDS011;66062;52.464;16.922;2023-01-16T11:42:12;6.18;;;1.65;;
77109;SDS011;66062;52.464;16.922;2023-01-16T11:44:57;4.28;;;1.75;;
77109;SDS011;66062;52.464;16.922;2023-01-16T11:47:42;5.68;;;1.95;;
77109;SDS011;66062;52.464;16.922;2023-01-16T11:52:52;4.68;;;1.63;;
77109;SDS011;66062;52.464;16.922;2023-01-16T11:55:18;6.40;;;1.70;;
77109;SDS011;66062;52.464;16.922;2023-01-16T12:13:25;4.70;;;2.58;;
77109;SDS011;66062;52.464;16.922;2023-01-16T12:16:16;5.57;;;1.80;;
77109;SDS011;66062;52.464;16.922;2023-01-16T12:31:26;5.03;;;2.00;;
77109;SDS011;66062;52.464;16.922;2023-01-16T12:44:39;6.35;;;2.90;;
77109;SDS011;66062;52.464;16.922;2023-01-16T12:49:50;5.30;;;2.38;;
77109;SDS011;66062;52.464;16.922;2023-01-16T12:52:27;6.85;;;2.28;;
77109;SDS011;66062;52.464;16.922;2023-01-16T12:55:06;5.53;;;1.98;;
77109;SDS011;66062;52.464;16.922;2023-01-16T12:57:41;6.28;;;2.55;;
77109;SDS011;66062;52.464;16.922;2023-01-16T13:02:47;5.60;;;2.22;;
77109;SDS011;66062;52.464;16.922;2023-01-16T13:05:17;5.13;;;2.42;;
77109;SDS011;66062;52.464;16.922;2023-01-16T13:10:17;7.47;;;2.33;;
77109;SDS011;66062;52.464;16.922;2023-01-16T13:13:03;7.78;;;2.85;;
77109;SDS011;66062;52.464;16.922;2023-01-16T13:15:59;6.68;;;2.42;;
77109;SDS011;66062;52.464;16.922;2023-01-16T13:18:32;6.40;;;2.58;;
77109;SDS011;66062;52.464;16.922;2023-01-16T13:21:00;7.20;;;3.47;;
77109;SDS011;66062;52.464;16.922;2023-01-16T13:23:36;6.20;;;2.70;;
77109;SDS011;66062;52.464;16.922;2023-01-16T13:26:05;9.00;;;3.47;;
77109;SDS011;66062;52.464;16.922;2023-01-16T13:31:53;9.15;;;2.75;;
77109;SDS011;66062;52.464;16.922;2023-01-16T13:34:01;8.57;;;2.97;;
77109;SDS011;66062;52.464;16.922;2023-01-16T13:41:35;8.07;;;2.63;;
77109;SDS011;66062;52.464;16.922;2023-01-16T13:44:07;8.32;;;2.97;;
77109;SDS011;66062;52.464;16.922;2023-01-16T13:46:55;8.68;;;2.67;;
77109;SDS011;66062;52.464;16.922;2023-01-16T13:49:28;6.05;;;2.70;;
77109;SDS011;66062;52.464;16.922;2023-01-16T13:51:53;7.10;;;3.00;;
77109;SDS011;66062;52.464;16.922;2023-01-16T13:54:27;6.88;;;3.90;;
77109;SDS011;66062;52.464;16.922;2023-01-16T13:56:57;7.72;;;2.55;;
77109;SDS011;66062;52.464;16.922;2023-01-16T13:59:44;6.85;;;2.83;;
77109;SDS011;66062;52.464;16.922;2023-01-16T14:02:22;7.93;;;2.88;;
77109;SDS011;66062;52.464;16.922;2023-01-16T14:13:31;6.05;;;2.67;;
77109;SDS011;66062;52.464;16.922;2023-01-16T14:16:39;9.63;;;3.72;;
77109;SDS011;66062;52.464;16.922;2023-01-16T14:19:02;9.68;;;3.95;;
77109;SDS011;66062;52.464;16.922;2023-01-16T14:23:57;8.85;;;3.47;;
77109;SDS011;66062;52.464;16.922;2023-01-16T14:26:34;13.20;;;4.25;;
77109;SDS011;66062;52.464;16.922;2023-01-16T14:29:01;11.90;;;5.20;;
77109;SDS011;66062;52.464;16.922;2023-01-16T14:31:38;10.82;;;4.88;;
77109;SDS011;66062;52.464;16.922;2023-01-16T14:34:03;13.73;;;5.25;;
77109;SDS011;66062;52.464;16.922;2023-01-16T14:36:29;15.57;;;6.17;;
77109;SDS011;66062;52.464;16.922;2023-01-16T14:38:58;11.00;;;4.82;;
77109;SDS011;66062;52.464;16.922;2023-01-16T14:41:28;14.93;;;5.03;;
77109;SDS011;66062;52.464;16.922;2023-01-16T14:44:13;11.10;;;5.57;;
77109;SDS011;66062;52.464;16.922;2023-01-16T14:49:58;13.77;;;4.97;;
77109;SDS011;66062;52.464;16.922;2023-01-16T14:52:46;12.63;;;4.97;;
77109;SDS011;66062;52.464;16.922;2023-01-16T14:55:32;16.83;;;6.97;;
77109;SDS011;66062;52.464;16.922;2023-01-16T14:57:59;17.98;;;5.53;;
77109;SDS011;66062;52.464;16.922;2023-01-16T15:00:25;13.05;;;5.60;;
77109;SDS011;66062;52.464;16.922;2023-01-16T15:02:55;12.93;;;6.28;;
77109;SDS011;66062;52.464;16.922;2023-01-16T15:05:32;12.27;;;4.50;;
77109;SDS011;66062;52.464;16.922;2023-01-16T15:08:21;11.13;;;4.70;;
77109;SDS011;66062;52.464;16.922;2023-01-16T15:10:49;8.07;;;4.20;;
77109;SDS011;66062;52.464;16.922;2023-01-16T15:13:22;12.75;;;4.85;;
77109;SDS011;66062;52.464;16.922;2023-01-16T15:18:22;9.80;;;3.80;;
77109;SDS011;66062;52.464;16.922;2023-01-16T15:21:13;12.23;;;3.75;;
77109;SDS011;66062;52.464;16.922;2023-01-16T15:23:58;16.05;;;4.78;;
77109;SDS011;66062;52.464;16.922;2023-01-16T15:31:29;14.32;;;4.78;;
77109;SDS011;66062;52.464;16.922;2023-01-16T15:34:02;10.65;;;4.55;;
77109;SDS011;66062;52.464;16.922;2023-01-16T15:36:42;13.70;;;4.68;;
77109;SDS011;66062;52.464;16.922;2023-01-16T15:41:37;12.40;;;5.30;;
77109;SDS011;66062;52.464;16.922;2023-01-16T15:44:27;16.67;;;5.47;;
77109;SDS011;66062;52.464;16.922;2023-01-16T15:49:50;12.38;;;5.60;;
77109;SDS011;66062;52.464;16.922;2023-01-16T15:52:19;12.10;;;4.30;;
77109;SDS011;66062;52.464;16.922;2023-01-16T15:54:44;14.48;;;4.97;;
77109;SDS011;66062;52.464;16.922;2023-01-16T15:57:14;13.82;;;6.05;;
77109;SDS011;66062;52.464;16.922;2023-01-16T15:59:48;13.73;;;4.45;;
77109;SDS011;66062;52.464;16.922;2023-01-16T16:02:21;12.13;;;5.03;;
77109;SDS011;66062;52.464;16.922;2023-01-16T16:04:48;13.68;;;5.28;;
77109;SDS011;66062;52.464;16.922;2023-01-16T16:07:14;15.25;;;5.85;;
77109;SDS011;66062;52.464;16.922;2023-01-16T16:09:41;12.27;;;6.03;;
77109;SDS011;66062;52.464;16.922;2023-01-16T16:12:09;15.13;;;6.28;;
77109;SDS011;66062;52.464;16.922;2023-01-16T16:14:36;17.02;;;6.13;;
77109;SDS011;66062;52.464;16.922;2023-01-16T16:22:52;18.88;;;7.95;;
77109;SDS011;66062;52.464;16.922;2023-01-16T16:25:20;19.25;;;8.50;;
77109;SDS011;66062;52.464;16.922;2023-01-16T16:27:47;22.48;;;8.48;;
77109;SDS011;66062;52.464;16.922;2023-01-16T16:30:17;22.90;;;8.27;;
77109;SDS011;66062;52.464;16.922;2023-01-16T16:32:45;21.02;;;8.38;;
77109;SDS011;66062;52.464;16.922;2023-01-16T16:35:16;19.00;;;8.07;;
77109;SDS011;66062;52.464;16.922;2023-01-16T16:37:42;18.40;;;8.45;;
77109;SDS011;66062;52.464;16.922;2023-01-16T16:45:13;19.55;;;8.30;;
77109;SDS011;66062;52.464;16.922;2023-01-16T16:47:44;23.38;;;8.88;;
77109;SDS011;66062;52.464;16.922;2023-01-16T16:52:46;23.83;;;8.00;;
77109;SDS011;66062;52.464;16.922;2023-01-16T16:55:25;20.75;;;7.63;;
77109;SDS011;66062;52.464;16.922;2023-01-16T16:57:52;18.52;;;7.72;;
77109;SDS011;66062;52.464;16.922;2023-01-16T17:00:17;17.95;;;7.88;;
77109;SDS011;66062;52.464;16.922;2023-01-16T17:02:45;19.60;;;10.00;;
77109;SDS011;66062;52.464;16.922;2023-01-16T17:05:13;28.70;;;8.70;;
77109;SDS011;66062;52.464;16.922;2023-01-16T17:07:40;19.33;;;8.18;;
77109;SDS011;66062;52.464;16.922;2023-01-16T17:10:11;17.57;;;7.57;;
77109;SDS011;66062;52.464;16.922;2023-01-16T17:12:36;21.23;;;7.88;;
77109;SDS011;66062;52.464;16.922;2023-01-16T17:17:29;17.30;;;6.53;;
77109;SDS011;66062;52.464;16.922;2023-01-16T17:19:54;17.65;;;7.80;;
77109;SDS011;66062;52.464;16.922;2023-01-16T17:22:19;19.83;;;8.03;;
77109;SDS011;66062;52.464;16.922;2023-01-16T17:24:45;19.63;;;8.23;;
77109;SDS011;66062;52.464;16.922;2023-01-16T17:27:10;18.03;;;8.63;;
77109;SDS011;66062;52.464;16.922;2023-01-16T17:29:36;23.90;;;11.65;;
77109;SDS011;66062;52.464;16.922;2023-01-16T17:32:08;19.17;;;9.32;;
77109;SDS011;66062;52.464;16.922;2023-01-16T17:34:38;25.38;;;8.82;;
77109;SDS011;66062;52.464;16.922;2023-01-16T17:37:04;26.80;;;9.40;;
77109;SDS011;66062;52.464;16.922;2023-01-16T17:39:31;18.83;;;9.25;;